Time;durP1;ratioP1;P1;durP2;ratioP2;P2;SDS_P1;SDS_P2;PMS_P1;PMS_P2;Temp;Humidity;BMP_temperature;BMP_pressure;BME280_temperature;BME280_humidity;BME280_pressure;Samples;Min_cycle;Max_cycle;Signal;HPM_P1;HPM_P2
2024/02/28 00:02:33;;;;;;;57.78;33.85;;;;;;;;;;10064079;28;20088;-75
2024/02/28 00:07:27;;;;;;;125.22;38.45;;;;;;;;;;10063857;28;20068;-75
2024/02/28 00:12:21;;;;;;;78.57;37.85;;;;;;;;;;10063650;28;20046;-76
2024/02/28 00:17:16;;;;;;;104.28;36.10;;;;;;;;;;10051579;28;20054;-75
2024/02/28 00:22:10;;;;;;;98.50;36.08;;;;;;;;;;10061147;28;20072;-76
2024/02/28 00:27:04;;;;;;;87.28;35.28;;;;;;;;;;10073980;28;20053;-76
2024/02/28 00:31:58;;;;;;;98.85;35.42;;;;;;;;;;10073191;28;20041;-75
2024/02/28 00:36:52;;;;;;;121.82;41.67;;;;;;;;;;10073534;28;20061;-75
2024/02/28 00:41:49;;;;;;;75.18;33.80;;;;;;;;;;10073545;28;20049;-76
2024/02/28 00:46:42;;;;;;;74.50;36.15;;;;;;;;;;10071935;28;20049;-76
2024/02/28 00:51:37;;;;;;;89.43;36.17;;;;;;;;;;10070279;28;20487;-75
2024/02/28 00:56:31;;;;;;;49.78;27.15;;;;;;;;;;10071760;28;20127;-76
2024/02/28 01:01:25;;;;;;;53.15;25.52;;;;;;;;;;10070378;28;20053;-76
2024/02/28 01:06:19;;;;;;;68.75;25.27;;;;;;;;;;10066840;28;20448;-76
2024/02/28 01:11:13;;;;;;;53.47;25.90;;;;;;;;;;10069884;28;20159;-76
2024/02/28 01:16:07;;;;;;;56.60;24.27;;;;;;;;;;10068944;28;20049;-76
2024/02/28 01:21:00;;;;;;;72.20;28.63;;;;;;;;;;10069379;28;20053;-76
2024/02/28 01:25:54;;;;;;;58.42;26.88;;;;;;;;;;10069356;28;20045;-76
2024/02/28 01:30:48;;;;;;;92.80;26.60;;;;;;;;;;10068062;28;20095;-76
2024/02/28 01:35:43;;;;;;;52.75;28.40;;;;;;;;;;10069451;28;20057;-76
2024/02/28 01:40:37;;;;;;;81.40;30.48;;;;;;;;;;10063071;28;20116;-76
2024/02/28 01:45:32;;;;;;;134.35;30.45;;;;;;;;;;10068713;28;20049;-77
2024/02/28 01:50:26;;;;;;;146.70;32.10;;;;;;;;;;10068901;28;21431;-76
2024/02/28 01:55:20;;;;;;;182.60;32.72;;;;;;;;;;10069258;28;20057;-76
2024/02/28 02:00:16;;;;;;;143.88;33.22;;;;;;;;;;10065654;28;20092;-75
2024/02/28 02:05:10;;;;;;;145.27;31.83;;;;;;;;;;10067977;28;20091;-76
2024/02/28 02:10:08;;;;;;;99.97;29.30;;;;;;;;;;10068063;28;20413;-76
2024/02/28 02:15:02;;;;;;;143.05;33.22;;;;;;;;;;10067476;28;20049;-76
2024/02/28 02:19:56;;;;;;;78.50;27.73;;;;;;;;;;10067440;28;20092;-76
2024/02/28 02:24:51;;;;;;;105.55;29.63;;;;;;;;;;10066819;28;20045;-76
2024/02/28 02:29:44;;;;;;;90.90;27.17;;;;;;;;;;10067173;28;20133;-76
2024/02/28 02:34:39;;;;;;;71.80;32.08;;;;;;;;;;10066653;28;20103;-76
2024/02/28 02:39:33;;;;;;;87.43;32.40;;;;;;;;;;10066961;28;20132;-76
2024/02/28 02:44:28;;;;;;;112.28;33.67;;;;;;;;;;10065399;28;20115;-76
2024/02/28 02:49:23;;;;;;;212.77;40.13;;;;;;;;;;10066350;28;20075;-76
2024/02/28 02:54:17;;;;;;;108.22;33.67;;;;;;;;;;10065946;28;20053;-77
2024/02/28 02:59:14;;;;;;;118.65;34.70;;;;;;;;;;10065999;28;20506;-76
2024/02/28 03:04:08;;;;;;;125.25;33.63;;;;;;;;;;10065835;28;20075;-76
2024/02/28 03:09:03;;;;;;;63.30;31.05;;;;;;;;;;10065863;28;20037;-76
2024/02/28 03:13:58;;;;;;;77.85;31.90;;;;;;;;;;10064359;28;20061;-76
2024/02/28 03:18:52;;;;;;;108.63;34.53;;;;;;;;;;10066418;28;20041;-76
2024/02/28 03:23:47;;;;;;;92.80;32.53;;;;;;;;;;10064441;28;20162;-76
2024/02/28 03:28:42;;;;;;;112.07;34.75;;;;;;;;;;10064639;28;20087;-76
2024/02/28 03:33:36;;;;;;;105.20;35.22;;;;;;;;;;10064478;28;20408;-78
2024/02/28 03:38:31;;;;;;;138.00;35.63;;;;;;;;;;10065524;28;20057;-77
2024/02/28 03:43:25;;;;;;;122.20;36.33;;;;;;;;;;10063421;28;20053;-77
2024/02/28 03:48:19;;;;;;;135.45;37.47;;;;;;;;;;10064238;28;20040;-76
2024/02/28 03:53:13;;;;;;;171.35;40.35;;;;;;;;;;10063428;28;20068;-76
2024/02/28 03:58:08;;;;;;;100.45;32.22;;;;;;;;;;10063934;28;20475;-76
2024/02/28 04:03:03;;;;;;;99.22;30.05;;;;;;;;;;10064430;28;20123;-76
2024/02/28 04:07:57;;;;;;;105.28;33.28;;;;;;;;;;10065326;28;20057;-76
2024/02/28 04:12:51;;;;;;;99.05;30.58;;;;;;;;;;10062561;28;20046;-76
2024/02/28 04:17:46;;;;;;;82.88;28.52;;;;;;;;;;10061690;28;20045;-76
2024/02/28 04:22:40;;;;;;;80.88;25.42;;;;;;;;;;10063663;28;20053;-76
2024/02/28 04:27:38;;;;;;;112.13;30.35;;;;;;;;;;10063194;28;20049;-79
2024/02/28 04:32:31;;;;;;;59.10;25.88;;;;;;;;;;10063811;28;20048;-77
2024/02/28 04:37:30;;;;;;;84.85;25.98;;;;;;;;;;10062545;28;20060;-77
2024/02/28 04:42:23;;;;;;;72.80;25.10;;;;;;;;;;10061614;28;20049;-77
2024/02/28 04:47:17;;;;;;;55.50;22.48;;;;;;;;;;10063234;28;20077;-78
2024/02/28 04:52:21;;;;;;;94.78;21.95;;;;;;;;;;10063126;28;20401;-76
2024/02/28 04:57:17;;;;;;;47.03;20.98;;;;;;;;;;10062693;28;20061;-76
2024/02/28 05:02:11;;;;;;;60.67;22.63;;;;;;;;;;10062915;28;20132;-77
2024/02/28 05:07:07;;;;;;;93.68;21.50;;;;;;;;;;10066897;28;20120;-77
2024/02/28 05:12:01;;;;;;;92.40;21.65;;;;;;;;;;10070315;28;20080;-76
2024/02/28 05:16:55;;;;;;;134.30;24.73;;;;;;;;;;10069808;28;20097;-76
2024/02/28 05:21:49;;;;;;;85.50;22.48;;;;;;;;;;10069846;28;20547;-76
2024/02/28 05:26:44;;;;;;;113.60;24.92;;;;;;;;;;10069536;28;20505;-75
2024/02/28 05:31:38;;;;;;;103.60;26.20;;;;;;;;;;10069374;28;20124;-77
2024/02/28 05:36:32;;;;;;;235.98;32.13;;;;;;;;;;10069145;28;20119;-77
2024/02/28 05:41:25;;;;;;;226.65;34.13;;;;;;;;;;10059122;28;20068;-77
2024/02/28 05:46:22;;;;;;;278.45;34.33;;;;;;;;;;10068184;28;20042;-75
2024/02/28 05:51:15;;;;;;;158.90;28.30;;;;;;;;;;10068260;28;20057;-76
2024/02/28 05:56:16;;;;;;;128.95;25.42;;;;;;;;;;10056429;28;20418;-75
2024/02/28 06:01:11;;;;;;;154.23;24.92;;;;;;;;;;10051299;28;20050;-76
2024/02/28 06:06:05;;;;;;;132.65;25.10;;;;;;;;;;10050726;28;20045;-76
2024/02/28 06:11:00;;;;;;;57.85;19.50;;;;;;;;;;10058808;28;20076;-77
2024/02/28 06:15:54;;;;;;;113.45;24.08;;;;;;;;;;10070121;28;20085;-77
2024/02/28 06:20:48;;;;;;;128.43;26.17;;;;;;;;;;10068981;28;20050;-76
2024/02/28 06:25:42;;;;;;;97.85;21.67;;;;;;;;;;10069659;28;20084;-74
2024/02/28 06:30:36;;;;;;;102.97;22.30;;;;;;;;;;10069545;28;20057;-75
2024/02/28 06:35:29;;;;;;;119.65;25.55;;;;;;;;;;10069307;28;20049;-75
2024/02/28 06:40:24;;;;;;;119.78;24.63;;;;;;;;;;10069646;28;20421;-76
2024/02/28 06:45:17;;;;;;;122.90;27.48;;;;;;;;;;10053132;28;20053;-78
2024/02/28 06:50:11;;;;;;;113.85;24.73;;;;;;;;;;10057818;28;20049;-77
2024/02/28 06:55:10;;;;;;;100.85;24.08;;;;;;;;;;10059169;28;20042;-76
2024/02/28 07:00:08;;;;;;;;;;;;;;;;;;10053549;28;20096;-75
2024/02/28 07:05:06;;;;;;;104.47;23.15;;;;;;;;;;10059445;28;19996;-77
2024/02/28 07:10:02;;;;;;;116.87;24.37;;;;;;;;;;10067234;28;20065;-75
2024/02/28 07:14:57;;;;;;;145.52;23.83;;;;;;;;;;10061936;28;20088;-74
2024/02/28 07:19:51;;;;;;;81.88;21.77;;;;;;;;;;10053997;28;20037;-75
2024/02/28 07:24:45;;;;;;;56.10;19.20;;;;;;;;;;10058983;28;20046;-77
2024/02/28 07:29:39;;;;;;;84.82;23.38;;;;;;;;;;10066968;28;20060;-77
2024/02/28 07:34:33;;;;;;;74.43;19.95;;;;;;;;;;10066244;28;20460;-76
2024/02/28 07:39:27;;;;;;;54.47;19.70;;;;;;;;;;10057079;28;20064;-75
2024/02/28 07:44:22;;;;;;;121.38;21.33;;;;;;;;;;10059270;28;20053;-75
2024/02/28 07:49:15;;;;;;;101.03;22.10;;;;;;;;;;10065432;28;20128;-75
2024/02/28 07:54:09;;;;;;;68.47;19.92;;;;;;;;;;10066149;28;20045;-76
2024/02/28 07:59:03;;;;;;;119.57;24.92;;;;;;;;;;10065984;28;20053;-76
2024/02/28 08:03:57;;;;;;;158.77;26.77;;;;;;;;;;10065389;28;20061;-75
2024/02/28 08:08:51;;;;;;;173.88;28.52;;;;;;;;;;10059022;28;20053;-75
2024/02/28 08:13:46;;;;;;;154.00;26.50;;;;;;;;;;10055910;28;20107;-75
2024/02/28 08:18:39;;;;;;;192.63;30.45;;;;;;;;;;10060028;28;20049;-75
2024/02/28 08:23:33;;;;;;;165.30;29.13;;;;;;;;;;10062780;28;20060;-75
2024/02/28 08:28:26;;;;;;;161.25;28.80;;;;;;;;;;10063420;28;20048;-76
2024/02/28 08:33:20;;;;;;;128.55;29.02;;;;;;;;;;10063319;28;20049;-76
2024/02/28 08:38:17;;;;;;;116.82;28.17;;;;;;;;;;10063138;28;20046;-76
2024/02/28 08:43:11;;;;;;;66.43;23.52;;;;;;;;;;10068102;28;20056;-75
2024/02/28 08:48:08;;;;;;;98.03;26.30;;;;;;;;;;10066317;28;20568;-76
2024/02/28 08:53:03;;;;;;;67.50;22.38;;;;;;;;;;10070535;28;20037;-75
2024/02/28 08:57:57;;;;;;;84.40;26.27;;;;;;;;;;10070455;28;20099;-77
2024/02/28 09:02:51;;;;;;;99.65;24.63;;;;;;;;;;10069869;28;20041;-74
2024/02/28 09:07:50;;;;;;;96.68;22.88;;;;;;;;;;10067094;28;20053;-75
2024/02/28 09:12:44;;;;;;;;;;;;;;;;;;10069344;28;20072;-75
2024/02/28 09:17:38;;;;;;;109.80;23.42;;;;;;;;;;10068068;28;20308;-74
2024/02/28 09:22:33;;;;;;;90.53;21.70;;;;;;;;;;10060451;28;20107;-76
2024/02/28 09:27:27;;;;;;;80.88;20.63;;;;;;;;;;10068253;28;20071;-77
2024/02/28 09:32:21;;;;;;;140.93;26.75;;;;;;;;;;10068808;28;20045;-75
2024/02/28 09:37:16;;;;;;;83.82;22.05;;;;;;;;;;10068529;28;20456;-75
2024/02/28 09:42:10;;;;;;;80.90;21.92;;;;;;;;;;10068651;28;20646;-75
2024/02/28 09:47:04;;;;;;;77.38;24.95;;;;;;;;;;10066335;28;20481;-75
2024/02/28 09:51:57;;;;;;;53.72;22.73;;;;;;;;;;10066954;28;20065;-76
2024/02/28 09:56:51;;;;;;;47.58;21.25;;;;;;;;;;10066444;28;20103;-76
2024/02/28 10:01:50;;;;;;;44.58;16.88;;;;;;;;;;10067501;28;20037;-76
2024/02/28 10:06:44;;;;;;;;;;;;;;;;;;10066523;28;20669;-76
2024/02/28 10:11:40;;;;;;;34.50;19.42;;;;;;;;;;10064273;28;20407;-77
2024/02/28 10:16:37;;;;;;;25.10;14.85;;;;;;;;;;10063905;28;20049;-75
2024/02/28 10:21:34;;;;;;;17.55;12.52;;;;;;;;;;10066462;28;20141;-78
2024/02/28 10:26:31;;;;;;;20.70;12.43;;;;;;;;;;10066800;28;20049;-77
2024/02/28 10:31:26;;;;;;;21.55;12.02;;;;;;;;;;10065795;28;21107;-76
2024/02/28 10:36:19;;;;;;;18.73;10.98;;;;;;;;;;10066896;28;20485;-76
2024/02/28 10:41:14;;;;;;;20.80;11.88;;;;;;;;;;10063121;28;20050;-77
2024/02/28 10:46:09;;;;;;;16.48;11.13;;;;;;;;;;10066288;28;20171;-77
2024/02/28 10:51:26;;;;;;;17.33;11.23;;;;;;;;;;10055969;28;20128;-77
2024/02/28 10:56:20;;;;;;;17.30;13.77;;;;;;;;;;10065884;28;20087;-77
2024/02/28 11:01:21;;;;;;;15.45;10.20;;;;;;;;;;10066266;28;20049;-75
2024/02/28 11:06:21;;;;;;;10.98;8.70;;;;;;;;;;10063418;28;20096;-75
2024/02/28 11:11:20;;;;;;;16.35;9.55;;;;;;;;;;10063987;28;20049;-77
2024/02/28 11:16:14;;;;;;;14.40;10.73;;;;;;;;;;10060001;28;20042;-77
2024/02/28 11:21:16;;;;;;;15.50;9.52;;;;;;;;;;10064953;28;20091;-75
2024/02/28 11:26:13;;;;;;;20.50;10.68;;;;;;;;;;10065053;28;20064;-76
2024/02/28 11:31:07;;;;;;;16.83;10.77;;;;;;;;;;10061881;28;20120;-75
2024/02/28 11:36:03;;;;;;;21.30;11.20;;;;;;;;;;10064137;28;20468;-76
2024/02/28 11:40:57;;;;;;;15.02;10.02;;;;;;;;;;10063858;28;20054;-75
2024/02/28 11:45:51;;;;;;;14.00;9.85;;;;;;;;;;10056360;28;20053;-76
2024/02/28 11:50:45;;;;;;;17.23;9.88;;;;;;;;;;10062108;28;20465;-76
2024/02/28 11:55:41;;;;;;;12.93;9.38;;;;;;;;;;10062860;28;20421;-77
2024/02/28 12:00:35;;;;;;;8.73;7.80;;;;;;;;;;10062734;28;20045;-77
2024/02/28 12:05:29;;;;;;;19.42;10.77;;;;;;;;;;10063043;28;20137;-75
2024/02/28 12:10:23;;;;;;;13.93;12.43;;;;;;;;;;10060442;28;20049;-77
2024/02/28 12:15:17;;;;;;;14.35;10.57;;;;;;;;;;10059528;28;20460;-75
2024/02/28 12:20:12;;;;;;;12.93;9.00;;;;;;;;;;10062527;28;20057;-75
2024/02/28 12:25:08;;;;;;;8.73;7.82;;;;;;;;;;10062790;28;20489;-76
2024/02/28 12:30:02;;;;;;;9.07;7.10;;;;;;;;;;10062034;28;20084;-75
2024/02/28 12:34:56;;;;;;;7.97;6.72;;;;;;;;;;10062583;28;20049;-74
2024/02/28 12:39:51;;;;;;;8.55;7.72;;;;;;;;;;10062945;28;20053;-76
2024/02/28 12:44:45;;;;;;;6.78;6.05;;;;;;;;;;10048213;28;20124;-76
2024/02/28 12:49:40;;;;;;;8.43;6.70;;;;;;;;;;10060218;28;20100;-76
2024/02/28 12:54:34;;;;;;;15.48;8.85;;;;;;;;;;10064628;28;20158;-76
2024/02/28 12:59:27;;;;;;;12.93;10.73;;;;;;;;;;10063569;28;20073;-75
2024/02/28 13:04:21;;;;;;;13.50;11.57;;;;;;;;;;10061705;28;20132;-75
2024/02/28 13:09:15;;;;;;;13.95;9.95;;;;;;;;;;10061922;28;20045;-76
2024/02/28 13:14:10;;;;;;;10.65;8.13;;;;;;;;;;10060665;28;20072;-76
2024/02/28 13:19:04;;;;;;;9.68;7.88;;;;;;;;;;10061983;28;20042;-76
2024/02/28 13:23:58;;;;;;;9.23;8.25;;;;;;;;;;10061904;28;20058;-74
2024/02/28 13:28:53;;;;;;;8.82;7.78;;;;;;;;;;10066709;28;20056;-74
2024/02/28 13:33:48;;;;;;;10.68;7.18;;;;;;;;;;10068504;28;20464;-76
2024/02/28 13:38:42;;;;;;;12.25;9.18;;;;;;;;;;10068858;28;20467;-76
2024/02/28 13:43:36;;;;;;;13.82;8.45;;;;;;;;;;10067695;28;20041;-73
2024/02/28 13:48:33;;;;;;;8.80;6.57;;;;;;;;;;10061299;28;20513;-74
2024/02/28 13:53:27;;;;;;;9.68;7.80;;;;;;;;;;10059835;28;20038;-73
2024/02/28 13:58:21;;;;;;;9.43;7.95;;;;;;;;;;10066984;28;20487;-73
2024/02/28 14:03:15;;;;;;;12.38;9.45;;;;;;;;;;10067114;28;20053;-74
2024/02/28 14:08:11;;;;;;;14.50;8.55;;;;;;;;;;10067401;28;20057;-75
2024/02/28 14:13:06;;;;;;;7.47;6.68;;;;;;;;;;10067834;28;20183;-76
2024/02/28 14:18:01;;;;;;;8.98;7.15;;;;;;;;;;10065942;28;20053;-75
2024/02/28 14:22:56;;;;;;;13.07;6.18;;;;;;;;;;10065298;28;20063;-75
2024/02/28 14:27:50;;;;;;;10.25;7.20;;;;;;;;;;10067275;28;20041;-75
2024/02/28 14:32:45;;;;;;;15.13;6.10;;;;;;;;;;10066483;28;20045;-76
2024/02/28 14:37:39;;;;;;;12.10;6.28;;;;;;;;;;10065863;28;20089;-76
2024/02/28 14:42:33;;;;;;;11.05;5.95;;;;;;;;;;10066017;28;20056;-74
2024/02/28 14:47:27;;;;;;;8.10;5.03;;;;;;;;;;10064055;28;20041;-75
2024/02/28 14:52:22;;;;;;;21.58;7.07;;;;;;;;;;10067381;28;20494;-75
2024/02/28 14:57:16;;;;;;;11.68;5.88;;;;;;;;;;10065571;28;20041;-77
2024/02/28 15:02:12;;;;;;;8.30;4.57;;;;;;;;;;10065742;28;20048;-76
2024/02/28 15:07:08;;;;;;;11.25;5.38;;;;;;;;;;10058814;28;20052;-76
2024/02/28 15:12:05;;;;;;;16.15;5.38;;;;;;;;;;10065043;28;20432;-75
2024/02/28 15:16:59;;;;;;;15.77;5.95;;;;;;;;;;10061513;28;20053;-75
2024/02/28 15:21:54;;;;;;;11.02;6.47;;;;;;;;;;10064857;28;20050;-76
2024/02/28 15:26:51;;;;;;;22.23;8.82;;;;;;;;;;10065661;28;20049;-76
2024/02/28 15:31:45;;;;;;;14.00;7.65;;;;;;;;;;10063384;28;20049;-75
2024/02/28 15:36:39;;;;;;;11.27;4.30;;;;;;;;;;10064251;28;20053;-74
2024/02/28 15:41:32;;;;;;;22.73;6.72;;;;;;;;;;10079784;28;20048;-74
2024/02/28 15:46:26;;;;;;;14.68;6.28;;;;;;;;;;10052330;28;20485;-76
2024/02/28 15:51:18;;;;;;;22.05;7.20;;;;;;;;;;10060600;28;20053;-76
2024/02/28 15:56:12;;;;;;;15.60;7.70;;;;;;;;;;10053301;28;20046;-77
2024/02/28 16:01:07;;;;;;;17.25;9.45;;;;;;;;;;10062505;28;20072;-75
2024/02/28 16:06:01;;;;;;;16.58;9.73;;;;;;;;;;10063288;28;20056;-78
2024/02/28 16:10:55;;;;;;;44.30;10.93;;;;;;;;;;10063179;28;20044;-76
2024/02/28 16:15:50;;;;;;;18.55;10.75;;;;;;;;;;10061014;28;20037;-77
2024/02/28 16:20:43;;;;;;;16.10;10.38;;;;;;;;;;10061161;28;20053;-77
2024/02/28 16:25:39;;;;;;;10.93;7.90;;;;;;;;;;10063373;28;20467;-76
2024/02/28 16:30:33;;;;;;;14.60;8.23;;;;;;;;;;10062512;28;20566;-75
2024/02/28 16:35:27;;;;;;;12.02;8.95;;;;;;;;;;10061362;28;20034;-77
2024/02/28 16:40:21;;;;;;;19.70;9.30;;;;;;;;;;10063025;28;20494;-76
2024/02/28 16:45:16;;;;;;;26.63;12.77;;;;;;;;;;10062219;28;20049;-76
2024/02/28 16:50:10;;;;;;;25.90;14.18;;;;;;;;;;10061711;28;20131;-76
2024/02/28 16:55:07;;;;;;;24.13;15.57;;;;;;;;;;10061578;28;20056;-75
2024/02/28 17:00:00;;;;;;;26.33;16.35;;;;;;;;;;10054245;28;20420;-75
2024/02/28 17:04:55;;;;;;;25.08;14.27;;;;;;;;;;10068123;28;20045;-75
2024/02/28 17:09:49;;;;;;;20.80;14.68;;;;;;;;;;10070027;28;20076;-77
2024/02/28 17:14:43;;;;;;;21.63;13.52;;;;;;;;;;10062581;28;20054;-76
2024/02/28 17:19:37;;;;;;;24.67;12.02;;;;;;;;;;10069409;28;20049;-75
2024/02/28 17:24:31;;;;;;;20.98;10.85;;;;;;;;;;10069008;28;20401;-76
2024/02/28 17:29:25;;;;;;;17.63;10.32;;;;;;;;;;10068427;28;20137;-76
2024/02/28 17:34:18;;;;;;;15.98;11.00;;;;;;;;;;10069094;28;20081;-74
2024/02/28 17:39:16;;;;;;;12.07;9.63;;;;;;;;;;10068621;28;20406;-76
2024/02/28 17:44:13;;;;;;;12.75;9.45;;;;;;;;;;10066685;28;20044;-76
2024/02/28 17:49:07;;;;;;;13.23;9.23;;;;;;;;;;10061310;28;20057;-75
2024/02/28 17:54:02;;;;;;;13.40;8.32;;;;;;;;;;10062229;28;20468;-75
2024/02/28 17:58:56;;;;;;;12.48;8.45;;;;;;;;;;10054484;28;20196;-75
2024/02/28 18:03:50;;;;;;;25.17;15.25;;;;;;;;;;10061234;28;20060;-75
2024/02/28 18:08:44;;;;;;;34.00;15.98;;;;;;;;;;10051997;28;20767;-76
2024/02/28 18:13:39;;;;;;;22.38;16.13;;;;;;;;;;10066222;28;20501;-76
2024/02/28 18:18:34;;;;;;;21.58;15.15;;;;;;;;;;10067622;28;20127;-76
2024/02/28 18:23:28;;;;;;;17.77;13.52;;;;;;;;;;10058787;28;20497;-76
2024/02/28 18:28:27;;;;;;;23.08;15.65;;;;;;;;;;10066059;28;20069;-76
2024/02/28 18:33:21;;;;;;;23.40;15.57;;;;;;;;;;10067079;28;20099;-76
2024/02/28 18:38:16;;;;;;;22.45;15.43;;;;;;;;;;10062391;28;20052;-75
2024/02/28 18:43:10;;;;;;;19.65;14.13;;;;;;;;;;10056794;28;20041;-77
2024/02/28 18:48:06;;;;;;;18.40;12.77;;;;;;;;;;10064345;28;20049;-78
2024/02/28 18:53:00;;;;;;;22.20;14.27;;;;;;;;;;10065865;28;20045;-77
2024/02/28 18:57:54;;;;;;;26.15;14.70;;;;;;;;;;10057991;28;20069;-77
2024/02/28 19:02:49;;;;;;;23.35;14.77;;;;;;;;;;10059766;28;20103;-77
2024/02/28 19:07:43;;;;;;;25.88;18.60;;;;;;;;;;10059383;28;20061;-75
2024/02/28 19:12:37;;;;;;;48.13;23.52;;;;;;;;;;10061082;28;20424;-76
2024/02/28 19:17:31;;;;;;;35.53;19.67;;;;;;;;;;10058045;28;20064;-76
2024/02/28 19:22:25;;;;;;;30.80;18.70;;;;;;;;;;10074328;28;20471;-76
2024/02/28 19:27:19;;;;;;;48.13;19.75;;;;;;;;;;10063914;28;20148;-76
2024/02/28 19:32:13;;;;;;;36.55;19.13;;;;;;;;;;10064011;28;20128;-76
2024/02/28 19:37:07;;;;;;;28.58;18.52;;;;;;;;;;10051906;28;20055;-75
2024/02/28 19:42:01;;;;;;;37.83;18.35;;;;;;;;;;10057725;28;20053;-78
2024/02/28 19:46:55;;;;;;;31.48;18.05;;;;;;;;;;10056328;28;20060;-75
2024/02/28 19:51:48;;;;;;;35.58;18.27;;;;;;;;;;10063447;28;20050;-77
2024/02/28 19:56:43;;;;;;;29.88;17.60;;;;;;;;;;10058084;28;20106;-76
2024/02/28 20:01:37;;;;;;;33.63;21.83;;;;;;;;;;10061238;28;20057;-75
2024/02/28 20:06:32;;;;;;;36.33;20.55;;;;;;;;;;10057746;28;20053;-75
2024/02/28 20:11:26;;;;;;;33.83;19.40;;;;;;;;;;10055283;28;20512;-77
2024/02/28 20:16:21;;;;;;;36.20;22.40;;;;;;;;;;10060207;28;20055;-79
2024/02/28 20:21:15;;;;;;;45.20;23.23;;;;;;;;;;10062198;28;20108;-76
2024/02/28 20:26:20;;;;;;;25.67;19.38;;;;;;;;;;10054438;28;20137;-78
2024/02/28 20:31:16;;;;;;;35.20;22.33;;;;;;;;;;10062346;28;20123;-76
2024/02/28 20:36:09;;;;;;;33.15;20.80;;;;;;;;;;10064337;28;20055;-76
2024/02/28 20:41:04;;;;;;;39.83;22.88;;;;;;;;;;10070441;28;20563;-76
2024/02/28 20:45:58;;;;;;;43.67;28.63;;;;;;;;;;10060709;28;20560;-76
2024/02/28 20:50:52;;;;;;;53.00;28.80;;;;;;;;;;10070859;28;20394;-79
2024/02/28 20:55:45;;;;;;;37.30;20.20;;;;;;;;;;10066663;28;20073;-75
2024/02/28 21:00:39;;;;;;;38.75;19.52;;;;;;;;;;10057458;28;20075;-77
2024/02/28 21:05:33;;;;;;;39.95;19.20;;;;;;;;;;10058426;28;20045;-76
2024/02/28 21:10:27;;;;;;;30.10;17.92;;;;;;;;;;10071262;28;20065;-76
2024/02/28 21:15:22;;;;;;;34.25;18.58;;;;;;;;;;10072224;28;20057;-76
2024/02/28 21:20:15;;;;;;;29.55;18.40;;;;;;;;;;10072269;28;20413;-78
2024/02/28 21:25:10;;;;;;;37.30;18.45;;;;;;;;;;10072163;28;20081;-77
2024/02/28 21:30:08;;;;;;;26.98;15.60;;;;;;;;;;10069802;28;20108;-80
2024/02/28 21:35:03;;;;;;;32.80;17.30;;;;;;;;;;10061238;28;20037;-78
2024/02/28 21:39:57;;;;;;;32.55;17.15;;;;;;;;;;10071416;28;20493;-76
2024/02/28 21:44:51;;;;;;;41.40;18.90;;;;;;;;;;10066657;28;20069;-76
2024/02/28 21:49:45;;;;;;;28.20;16.80;;;;;;;;;;10071051;28;20054;-78
2024/02/28 21:54:42;;;;;;;41.03;19.70;;;;;;;;;;10071121;28;20147;-77
2024/02/28 21:59:36;;;;;;;29.65;17.25;;;;;;;;;;10066271;28;20054;-77
2024/02/28 22:04:30;;;;;;;31.98;18.88;;;;;;;;;;10051390;28;20129;-78
2024/02/28 22:09:24;;;;;;;31.70;19.90;;;;;;;;;;10070566;28;20065;-77
2024/02/28 22:14:19;;;;;;;40.33;18.70;;;;;;;;;;10068369;28;20060;-79
2024/02/28 22:19:14;;;;;;;29.35;16.83;;;;;;;;;;10060703;28;20187;-78
2024/02/28 22:24:09;;;;;;;38.70;18.33;;;;;;;;;;10069609;28;20053;-78
2024/02/28 22:29:03;;;;;;;28.05;17.00;;;;;;;;;;10069722;28;20057;-77
2024/02/28 22:33:56;;;;;;;21.85;13.80;;;;;;;;;;10056377;28;20057;-77
2024/02/28 22:38:52;;;;;;;52.83;15.07;;;;;;;;;;10068845;28;20046;-76
2024/02/28 22:43:46;;;;;;;31.25;13.80;;;;;;;;;;10068653;28;20041;-76
2024/02/28 22:48:40;;;;;;;23.98;13.25;;;;;;;;;;10068908;28;20033;-76
2024/02/28 22:53:35;;;;;;;20.27;13.77;;;;;;;;;;10068789;28;20048;-76
2024/02/28 22:58:29;;;;;;;19.10;13.15;;;;;;;;;;10064357;28;20382;-76
2024/02/28 23:03:24;;;;;;;23.85;13.27;;;;;;;;;;10067714;28;20107;-77
2024/02/28 23:08:17;;;;;;;19.90;12.80;;;;;;;;;;10068290;28;20456;-78
2024/02/28 23:13:12;;;;;;;24.27;14.20;;;;;;;;;;10062479;28;20140;-77
2024/02/28 23:18:07;;;;;;;27.15;13.20;;;;;;;;;;10057740;28;20057;-77
2024/02/28 23:23:01;;;;;;;24.95;14.50;;;;;;;;;;10069691;28;20049;-78
2024/02/28 23:27:55;;;;;;;16.55;11.55;;;;;;;;;;10058569;28;20147;-76
2024/02/28 23:32:49;;;;;;;28.20;13.68;;;;;;;;;;10067506;28;20083;-77
2024/02/28 23:37:43;;;;;;;20.48;13.15;;;;;;;;;;10067090;28;20052;-76
2024/02/28 23:42:39;;;;;;;18.83;12.60;;;;;;;;;;10067347;28;20048;-76
2024/02/28 23:47:33;;;;;;;27.17;11.45;;;;;;;;;;10066907;28;20404;-76
2024/02/28 23:52:27;;;;;;;20.30;11.55;;;;;;;;;;10066890;28;20049;-77
2024/02/28 23:57:22;;;;;;;20.00;12.60;;;;;;;;;;10065186;28;20041;-76
